createdAt,value
2018-08-03T00:00:40.357Z,10.73
2018-08-03T00:03:21.487Z,8.87
2018-08-03T00:06:03.207Z,7.67
2018-08-03T00:08:45.017Z,10.60
2018-08-03T00:11:26.729Z,7.00
2018-08-03T00:14:08.571Z,5.77
2018-08-03T00:16:50.873Z,9.33
2018-08-03T00:19:31.967Z,6.93
2018-08-03T00:22:13.401Z,11.43
2018-08-03T00:24:55.163Z,7.90
2018-08-03T00:27:36.853Z,6.87
2018-08-03T00:30:19.319Z,7.87
2018-08-03T00:33:00.299Z,6.13
2018-08-03T00:35:42.007Z,6.53
2018-08-03T00:38:22.719Z,6.73
2018-08-03T00:41:03.372Z,7.00
2018-08-03T00:43:44.201Z,6.83
2018-08-03T00:46:25.733Z,7.00
2018-08-03T00:49:06.437Z,6.70
2018-08-03T00:51:48.152Z,7.33
2018-08-03T00:54:29.809Z,10.00
2018-08-03T00:57:10.738Z,7.30
2018-08-03T00:59:52.521Z,6.07
2018-08-03T01:02:34.129Z,9.80
2018-08-03T01:05:15.544Z,8.03
2018-08-03T01:07:56.354Z,6.93
2018-08-03T01:10:38.114Z,8.23
2018-08-03T01:13:20.465Z,6.97
2018-08-03T01:16:01.500Z,6.60
2018-08-03T01:18:44.209Z,7.20
2018-08-03T01:21:25.955Z,6.53
2018-08-03T01:24:07.541Z,8.37
2018-08-03T01:26:49.176Z,9.20
2018-08-03T01:29:30.107Z,8.50
2018-08-03T01:32:10.831Z,9.40
2018-08-03T01:34:51.701Z,6.70
2018-08-03T01:37:33.262Z,8.70
2018-08-03T01:40:14.932Z,7.10
2018-08-03T01:42:56.641Z,9.60
2018-08-03T01:45:37.850Z,7.07
2018-08-03T01:48:19.582Z,8.93
2018-08-03T01:51:01.175Z,6.80
2018-08-03T01:53:42.297Z,6.83
2018-08-03T01:56:23.614Z,6.73
2018-08-03T01:59:05.403Z,7.30
2018-08-03T02:01:46.863Z,7.60
2018-08-03T02:04:27.701Z,8.80
2018-08-03T02:07:09.175Z,7.10
2018-08-03T02:09:50.882Z,9.50
2018-08-03T02:12:32.308Z,6.67
2018-08-03T02:15:13.897Z,6.93
2018-08-03T02:17:55.751Z,7.63
2018-08-03T02:20:36.855Z,7.00
2018-08-03T02:23:18.462Z,7.83
2018-08-03T02:25:59.833Z,7.80
2018-08-03T02:28:40.873Z,6.40
2018-08-03T02:31:22.316Z,7.13
2018-08-03T02:34:04.099Z,10.53
2018-08-03T02:36:45.724Z,6.63
2018-08-03T02:39:27.476Z,7.63
2018-08-03T02:42:08.347Z,6.50
2018-08-03T02:44:49.850Z,7.83
2018-08-03T02:47:30.724Z,7.50
2018-08-03T02:50:11.484Z,6.53
2018-08-03T02:52:53.606Z,8.10
2018-08-03T02:55:34.863Z,7.27
2018-08-03T02:58:16.437Z,7.70
2018-08-03T03:00:57.262Z,6.50
2018-08-03T03:03:38.296Z,7.30
2018-08-03T03:06:20.061Z,6.70
2018-08-03T03:09:01.003Z,6.90
2018-08-03T03:11:41.899Z,7.23
2018-08-03T03:14:23.608Z,11.43
2018-08-03T03:17:05.384Z,7.73
2018-08-03T03:19:47.041Z,9.07
2018-08-03T03:22:28.752Z,7.40
2018-08-03T03:25:10.286Z,9.10
2018-08-03T03:27:51.610Z,7.70
2018-08-03T03:30:32.552Z,6.20
2018-08-03T03:33:14.952Z,6.73
2018-08-03T03:35:56.693Z,7.37
2018-08-03T03:38:38.031Z,10.37
2018-08-03T03:41:19.525Z,7.23
2018-08-03T03:44:01.205Z,10.83
2018-08-03T03:46:42.581Z,7.33
2018-08-03T03:49:24.654Z,7.60
2018-08-03T03:52:06.320Z,7.20
2018-08-03T03:54:48.069Z,7.60
2018-08-03T03:57:28.795Z,7.37
2018-08-03T04:00:10.690Z,7.43
2018-08-03T04:02:52.458Z,6.93
2018-08-03T04:05:34.418Z,7.53
2018-08-03T04:08:17.969Z,8.77
2018-08-03T04:10:59.289Z,9.27
2018-08-03T04:13:40.956Z,6.53
2018-08-03T04:16:22.619Z,6.30
2018-08-03T04:19:03.438Z,8.73
2018-08-03T04:21:45.141Z,7.80
2018-08-03T04:24:26.996Z,7.57
2018-08-03T04:27:08.439Z,15.27
2018-08-03T04:29:50.047Z,17.17
2018-08-03T04:32:31.746Z,15.30
2018-08-03T04:35:13.531Z,16.73
2018-08-03T04:37:55.153Z,19.93
2018-08-03T04:40:35.957Z,19.03
2018-08-03T04:43:17.713Z,23.60
2018-08-03T04:45:59.486Z,28.23
2018-08-03T04:48:41.195Z,39.27
2018-08-03T04:51:23.186Z,35.50
2018-08-03T04:54:05.013Z,21.23
2018-08-03T04:56:46.843Z,38.03
2018-08-03T04:59:28.129Z,37.03
2018-08-03T05:02:10.438Z,24.13
2018-08-03T05:04:52.239Z,30.80
2018-08-03T05:07:33.406Z,29.77
2018-08-03T05:10:14.979Z,42.27
2018-08-03T05:12:55.801Z,43.17
2018-08-03T05:15:36.576Z,76.20
2018-08-03T05:18:18.125Z,34.10
2018-08-03T05:20:59.136Z,37.50
2018-08-03T05:23:40.465Z,37.63
2018-08-03T05:26:21.378Z,28.40
2018-08-03T05:29:02.584Z,22.50
2018-08-03T05:31:43.935Z,34.70
2018-08-03T05:34:24.845Z,27.20
2018-08-03T05:37:06.731Z,39.13
2018-08-03T05:39:48.558Z,48.27
2018-08-03T05:42:30.375Z,45.87
2018-08-03T05:45:11.881Z,35.00
2018-08-03T05:47:53.499Z,31.03
2018-08-03T05:50:34.885Z,34.20
2018-08-03T05:53:16.224Z,40.80
2018-08-03T05:55:57.995Z,28.27
2018-08-03T05:58:39.682Z,39.07
2018-08-03T06:01:21.525Z,38.23
2018-08-03T06:04:03.980Z,24.10
2018-08-03T06:06:45.711Z,34.50
2018-08-03T06:09:27.488Z,26.40
2018-08-03T06:12:09.233Z,31.90
2018-08-03T06:14:52.009Z,28.90
2018-08-03T06:17:34.622Z,43.67
2018-08-03T06:20:16.227Z,49.23
2018-08-03T06:22:57.913Z,54.53
2018-08-03T06:25:39.772Z,97.23
2018-08-03T06:28:21.493Z,120.80
2018-08-03T06:31:03.291Z,72.57
2018-08-03T06:33:44.906Z,78.10
2018-08-03T06:36:25.802Z,47.13
2018-08-03T06:39:06.524Z,17.83
2018-08-03T06:41:47.237Z,17.93
2018-08-03T06:44:28.110Z,14.50
2018-08-03T06:47:09.369Z,10.07
2018-08-03T06:49:51.751Z,14.53
2018-08-03T06:52:32.686Z,9.23
2018-08-03T06:55:14.307Z,10.97
2018-08-03T06:57:55.094Z,16.73
2018-08-03T07:00:36.650Z,19.27
2018-08-03T07:03:18.115Z,14.80
2018-08-03T07:05:59.304Z,12.27
2018-08-03T07:08:40.303Z,15.80
2018-08-03T07:11:21.849Z,15.70
2018-08-03T07:14:02.717Z,16.20
2018-08-03T07:16:44.369Z,9.10
2018-08-03T07:19:25.895Z,15.73
2018-08-03T07:22:07.577Z,14.20
2018-08-03T07:24:48.597Z,16.10
2018-08-03T07:27:29.226Z,19.20
2018-08-03T07:30:09.908Z,16.73
2018-08-03T07:32:51.584Z,11.57
2018-08-03T07:35:32.431Z,17.07
2018-08-03T07:38:13.643Z,12.60
2018-08-03T07:40:55.564Z,16.00
2018-08-03T07:43:36.773Z,19.50
2018-08-03T07:46:18.503Z,13.90
2018-08-03T07:49:00.156Z,17.10
2018-08-03T07:51:41.781Z,16.37
2018-08-03T07:54:22.429Z,13.50
2018-08-03T07:57:03.363Z,14.60
2018-08-03T07:59:44.526Z,12.13
2018-08-03T08:02:25.324Z,14.20
2018-08-03T08:05:06.534Z,19.17
2018-08-03T08:07:47.805Z,19.17
2018-08-03T08:10:28.520Z,12.83
2018-08-03T08:13:10.082Z,12.93
2018-08-03T08:15:50.805Z,11.97
2018-08-03T08:18:32.495Z,12.53
2018-08-03T08:21:14.086Z,15.83
2018-08-03T08:23:54.867Z,15.07
2018-08-03T08:26:36.498Z,13.23
2018-08-03T08:29:17.261Z,11.73
2018-08-03T08:31:58.341Z,14.83
2018-08-03T08:34:39.797Z,12.37
2018-08-03T08:37:21.486Z,14.93
2018-08-03T08:40:03.244Z,21.90
2018-08-03T08:42:44.839Z,11.67
2018-08-03T08:45:25.568Z,18.97
2018-08-03T08:48:06.280Z,13.07
2018-08-03T08:50:47.961Z,12.80
2018-08-03T08:53:29.500Z,17.60
2018-08-03T08:56:11.269Z,15.20
2018-08-03T08:58:52.882Z,20.23
2018-08-03T09:01:34.419Z,15.63
2018-08-03T09:04:16.049Z,19.47
2018-08-03T09:06:57.848Z,12.13
2018-08-03T09:09:38.549Z,13.43
2018-08-03T09:12:20.295Z,9.53
2018-08-03T09:15:02.023Z,10.07
2018-08-03T09:17:43.749Z,9.30
2018-08-03T09:20:25.313Z,13.37
2018-08-03T09:23:06.891Z,12.30
2018-08-03T09:25:48.650Z,15.33
2018-08-03T09:28:30.597Z,14.20
2018-08-03T09:31:11.335Z,17.80
2018-08-03T09:33:53.000Z,9.83
2018-08-03T09:36:34.688Z,15.23
2018-08-03T09:39:15.842Z,12.50
2018-08-03T09:41:57.554Z,17.70
2018-08-03T09:44:39.356Z,17.63
2018-08-03T09:47:20.757Z,18.40
2018-08-03T09:50:01.511Z,12.80
2018-08-03T09:52:42.232Z,10.77
2018-08-03T09:55:23.196Z,13.53
2018-08-03T09:58:04.584Z,14.20
2018-08-03T10:00:50.428Z,10.00
2018-08-03T10:03:31.969Z,10.50
2018-08-03T10:06:13.873Z,11.60
2018-08-03T10:08:55.754Z,10.20
2018-08-03T10:11:37.059Z,10.30
2018-08-03T10:17:25.495Z,16.70
2018-08-03T10:20:06.275Z,10.13
2018-08-03T10:22:47.289Z,10.37
2018-08-03T10:25:28.271Z,10.30
2018-08-03T10:28:09.338Z,17.67
2018-08-03T10:30:50.208Z,13.17
2018-08-03T10:33:31.077Z,11.67
2018-08-03T10:36:12.029Z,9.30
2018-08-03T10:38:53.288Z,10.70
2018-08-03T10:41:34.803Z,10.20
2018-08-03T10:44:15.943Z,12.40
2018-08-03T10:46:56.824Z,9.53
2018-08-03T10:49:41.623Z,11.07
2018-08-03T10:52:23.102Z,11.57
2018-08-03T10:55:03.831Z,9.17
2018-08-03T10:57:45.686Z,12.10
2018-08-03T11:00:26.487Z,9.03
2018-08-03T11:03:08.996Z,14.57
2018-08-03T11:05:50.099Z,13.57
2018-08-03T11:08:30.883Z,11.03
2018-08-03T11:11:11.682Z,11.67
2018-08-03T11:13:52.371Z,9.80
2018-08-03T11:16:34.055Z,11.07
2018-08-03T11:19:14.800Z,11.43
2018-08-03T11:21:55.663Z,7.83
2018-08-03T11:24:37.341Z,8.80
2018-08-03T11:27:35.105Z,8.50
2018-08-03T11:30:15.843Z,9.53
2018-08-03T11:32:56.519Z,7.80
2018-08-03T11:35:38.241Z,11.90
2018-08-03T11:38:19.109Z,9.10
2018-08-03T11:41:00.856Z,8.80
2018-08-03T11:43:42.618Z,7.20
2018-08-03T11:46:24.238Z,7.93
2018-08-03T11:49:05.819Z,7.77
2018-08-03T11:51:46.656Z,7.30
2018-08-03T11:54:28.217Z,8.40
2018-08-03T11:57:11.187Z,8.00
2018-08-03T12:03:04.926Z,9.53
2018-08-03T12:05:47.006Z,6.97
2018-08-03T12:08:27.940Z,7.67
2018-08-03T12:11:08.900Z,9.60
2018-08-03T12:13:50.562Z,7.67
2018-08-03T12:16:32.110Z,7.70
2018-08-03T12:19:12.820Z,10.40
2018-08-03T12:21:53.543Z,9.90
2018-08-03T12:24:34.909Z,7.33
2018-08-03T12:27:16.711Z,9.13
2018-08-03T12:29:57.836Z,8.30
2018-08-03T12:32:39.205Z,9.07
2018-08-03T12:35:20.924Z,9.77
2018-08-03T12:38:02.598Z,9.60
2018-08-03T12:40:43.654Z,7.67
2018-08-03T12:43:25.391Z,7.77
2018-08-03T12:46:06.248Z,6.67
2018-08-03T12:48:47.817Z,8.10
2018-08-03T12:51:28.629Z,12.27
2018-08-03T12:54:10.337Z,7.50
2018-08-03T12:56:51.922Z,7.87
2018-08-03T12:59:32.667Z,7.27
2018-08-03T13:02:14.325Z,7.83
2018-08-03T13:04:55.603Z,8.10
2018-08-03T13:07:37.217Z,8.90
2018-08-03T13:10:18.970Z,7.43
2018-08-03T13:13:00.296Z,7.00
2018-08-03T13:15:41.790Z,10.37
2018-08-03T13:18:23.549Z,8.27
2018-08-03T13:21:05.001Z,7.63
2018-08-03T13:23:46.605Z,9.77
2018-08-03T13:26:27.790Z,6.93
2018-08-03T13:29:09.103Z,8.63
2018-08-03T13:31:51.038Z,8.43
2018-08-03T13:34:32.705Z,6.73
2018-08-03T13:37:14.260Z,6.60
2018-08-03T13:39:54.993Z,7.30
2018-08-03T13:42:35.884Z,9.33
2018-08-03T13:45:16.566Z,7.20
2018-08-03T13:48:11.238Z,28.63
2018-08-03T13:50:52.961Z,7.13
2018-08-03T13:53:37.020Z,36.40
2018-08-03T13:56:22.773Z,7.20
2018-08-03T13:59:04.242Z,11.70
2018-08-03T14:01:46.130Z,9.80
2018-08-03T14:04:27.779Z,8.80
2018-08-03T14:07:08.686Z,7.10
2018-08-03T14:09:50.410Z,6.73
2018-08-03T14:12:32.053Z,8.10
2018-08-03T14:15:13.343Z,8.90
2018-08-03T14:17:54.752Z,10.70
2018-08-03T14:20:35.388Z,7.00
2018-08-03T14:23:17.099Z,11.50
2018-08-03T14:25:58.785Z,7.87
2018-08-03T14:28:40.370Z,10.70
2018-08-03T14:31:21.409Z,7.30
2018-08-03T14:34:02.887Z,10.30
2018-08-03T14:36:43.658Z,7.13
2018-08-03T14:39:24.508Z,7.47
2018-08-03T14:42:05.961Z,9.87
2018-08-03T14:44:46.858Z,11.70
2018-08-03T14:47:29.004Z,8.03
2018-08-03T14:50:10.179Z,15.33
2018-08-03T14:52:51.180Z,7.80
2018-08-03T14:55:32.607Z,13.37
2018-08-03T14:58:13.724Z,16.50
2018-08-03T15:00:55.194Z,8.43
2018-08-03T15:03:36.877Z,11.53
2018-08-03T15:06:18.767Z,10.70
2018-08-03T15:09:05.847Z,7.97
2018-08-03T15:11:47.045Z,7.83
2018-08-03T15:14:28.834Z,7.20
2018-08-03T15:20:22.558Z,14.37
2018-08-03T15:23:11.899Z,6.90
2018-08-03T15:25:54.361Z,7.00
2018-08-03T15:28:35.431Z,7.60
2018-08-03T15:31:16.835Z,8.07
2018-08-03T15:33:59.581Z,11.40
2018-08-03T15:36:41.057Z,7.50
2018-08-03T15:39:21.824Z,12.13
2018-08-03T15:42:03.416Z,7.53
2018-08-03T15:44:44.256Z,8.20
2018-08-03T15:47:25.092Z,7.37
2018-08-03T15:50:07.143Z,7.40
2018-08-03T15:52:48.819Z,6.20
2018-08-03T15:55:30.196Z,5.60
2018-08-03T15:58:11.100Z,7.13
2018-08-03T16:00:52.730Z,7.13
2018-08-03T16:03:34.337Z,10.47
2018-08-03T16:06:15.143Z,6.80
2018-08-03T16:08:55.947Z,7.23
2018-08-03T16:11:37.649Z,8.00
2018-08-03T16:14:19.272Z,11.00
2018-08-03T16:17:00.957Z,8.90
2018-08-03T16:19:42.589Z,9.17
2018-08-03T16:22:24.311Z,9.30
2018-08-03T16:25:05.883Z,13.30
2018-08-03T16:27:47.460Z,6.80
2018-08-03T16:30:28.340Z,7.03
2018-08-03T16:33:10.168Z,8.17
2018-08-03T16:35:51.800Z,9.90
2018-08-03T16:38:33.534Z,8.53
2018-08-03T16:41:14.995Z,13.73
2018-08-03T16:43:56.628Z,8.30
2018-08-03T16:46:38.526Z,7.33
2018-08-03T16:49:20.288Z,7.23
2018-08-03T16:52:01.917Z,7.17
2018-08-03T16:54:42.673Z,6.97
2018-08-03T16:57:24.374Z,6.27
2018-08-03T17:00:06.136Z,7.27
2018-08-03T17:02:48.014Z,7.20
2018-08-03T17:05:29.542Z,6.60
2018-08-03T17:08:11.054Z,6.20
2018-08-03T17:10:51.964Z,10.07
2018-08-03T17:13:49.837Z,8.03
2018-08-03T17:16:31.284Z,7.87
2018-08-03T17:19:13.349Z,9.43
2018-08-03T17:21:54.898Z,7.37
2018-08-03T17:24:37.027Z,6.70
2018-08-03T17:30:26.164Z,8.70
2018-08-03T17:33:08.274Z,12.37
2018-08-03T17:35:49.437Z,11.80
2018-08-03T17:38:30.981Z,9.37
2018-08-03T17:41:11.844Z,10.00
2018-08-03T17:44:05.607Z,12.00
2018-08-03T17:46:47.436Z,10.50
2018-08-03T17:49:28.180Z,6.90
2018-08-03T17:52:09.956Z,12.43
2018-08-03T17:54:50.710Z,7.20
2018-08-03T17:57:31.917Z,11.27
2018-08-03T18:00:14.088Z,7.60
2018-08-03T18:02:56.001Z,9.37
2018-08-03T18:05:36.969Z,6.87
2018-08-03T18:08:17.807Z,8.03
2018-08-03T18:10:59.757Z,11.23
2018-08-03T18:13:41.346Z,6.57
2018-08-03T18:16:22.295Z,8.47
2018-08-03T18:22:11.566Z,7.50
2018-08-03T18:24:53.376Z,12.50
2018-08-03T18:27:34.892Z,11.90
2018-08-03T18:30:16.553Z,7.50
2018-08-03T18:33:14.271Z,8.40
2018-08-03T18:35:55.135Z,8.57
2018-08-03T18:38:36.577Z,7.77
2018-08-03T18:41:19.230Z,6.87
2018-08-03T18:44:00.045Z,6.93
2018-08-03T18:46:41.117Z,12.33
2018-08-03T18:49:22.744Z,6.53
2018-08-03T18:52:21.479Z,7.90
2018-08-03T18:55:03.035Z,7.13
2018-08-03T18:57:44.555Z,9.97
2018-08-03T19:00:26.316Z,8.63
2018-08-03T19:03:08.382Z,6.93
2018-08-03T19:05:50.328Z,6.60
2018-08-03T19:08:31.693Z,12.70
2018-08-03T19:11:13.210Z,8.03
2018-08-03T19:13:54.111Z,7.37
2018-08-03T19:16:35.787Z,9.43
2018-08-03T19:19:17.302Z,7.83
2018-08-03T19:21:58.479Z,9.60
2018-08-03T19:24:46.949Z,7.60
2018-08-03T19:27:28.517Z,7.80
2018-08-03T19:30:10.261Z,7.20
2018-08-03T19:32:51.968Z,7.10
2018-08-03T19:35:33.627Z,18.93
2018-08-03T19:38:16.238Z,14.80
2018-08-03T19:44:04.892Z,12.77
2018-08-03T19:46:46.526Z,22.97
2018-08-03T19:49:28.245Z,33.93
2018-08-03T19:52:12.338Z,57.70
2018-08-03T19:54:54.134Z,44.20
2018-08-03T19:57:35.669Z,76.60
2018-08-03T20:00:17.156Z,76.23
2018-08-03T20:02:59.769Z,45.60
2018-08-03T20:05:41.355Z,45.83
2018-08-03T20:08:23.190Z,57.97
2018-08-03T20:11:25.019Z,42.00
2018-08-03T20:14:06.583Z,63.67
2018-08-03T20:16:48.692Z,43.97
2018-08-03T20:19:30.338Z,57.50
2018-08-03T20:22:11.560Z,33.73
2018-08-03T20:24:53.131Z,57.97
2018-08-03T20:27:33.980Z,44.57
2018-08-03T20:30:16.020Z,39.17
2018-08-03T20:32:57.202Z,42.40
2018-08-03T20:41:52.588Z,10.30
2018-08-03T20:44:34.274Z,15.70
2018-08-03T20:47:15.940Z,20.30
2018-08-03T20:50:02.604Z,15.37
2018-08-03T20:52:44.525Z,13.43
2018-08-03T20:55:26.087Z,8.07
2018-08-03T20:58:07.930Z,9.63
2018-08-03T21:00:49.315Z,8.13
2018-08-03T21:03:30.383Z,6.67
2018-08-03T21:06:12.057Z,11.83
2018-08-03T21:08:53.813Z,9.30
2018-08-03T21:11:35.980Z,7.23
2018-08-03T21:14:18.147Z,8.50
2018-08-03T21:16:59.991Z,8.57
2018-08-03T21:19:40.947Z,7.30
2018-08-03T21:22:23.632Z,8.50
2018-08-03T21:25:20.261Z,9.70
2018-08-03T21:28:02.778Z,18.57
2018-08-03T21:30:44.284Z,15.90
2018-08-03T21:33:25.534Z,8.00
2018-08-03T21:36:08.384Z,7.77
2018-08-03T21:38:50.228Z,10.00
2018-08-03T21:41:31.681Z,8.70
2018-08-03T21:44:13.353Z,7.83
2018-08-03T21:46:54.056Z,7.73
2018-08-03T21:49:35.647Z,7.63
2018-08-03T21:52:17.246Z,9.80
2018-08-03T21:54:58.946Z,9.23
2018-08-03T21:57:40.918Z,7.00
2018-08-03T22:00:23.301Z,8.47
2018-08-03T22:03:05.516Z,7.53
2018-08-03T22:05:50.964Z,7.37
2018-08-03T22:08:34.559Z,8.40
2018-08-03T22:11:19.175Z,11.27
2018-08-03T22:14:10.176Z,10.67
2018-08-03T22:16:51.306Z,7.17
2018-08-03T22:19:33.379Z,13.37
2018-08-03T22:22:14.706Z,13.13
2018-08-03T22:24:56.111Z,8.33
2018-08-03T22:27:37.753Z,8.00
2018-08-03T22:30:19.299Z,7.67
2018-08-03T22:33:01.579Z,6.87
2018-08-03T22:35:42.804Z,7.80
2018-08-03T22:38:34.260Z,9.93
2018-08-03T22:41:15.064Z,7.07
2018-08-03T22:43:55.968Z,8.30
2018-08-03T22:46:36.699Z,10.73
2018-08-03T22:49:18.277Z,10.80
2018-08-03T22:51:59.736Z,8.40
2018-08-03T22:54:40.459Z,9.53
2018-08-03T22:57:21.261Z,9.53
2018-08-03T23:00:03.414Z,13.20
2018-08-03T23:02:44.671Z,7.37
2018-08-03T23:05:27.134Z,8.63
2018-08-03T23:08:08.262Z,7.17
2018-08-03T23:10:49.828Z,7.63
2018-08-03T23:13:31.144Z,9.00
2018-08-03T23:16:12.508Z,7.80
2018-08-03T23:18:53.752Z,7.47
2018-08-03T23:21:35.452Z,9.20
2018-08-03T23:24:16.570Z,8.10
2018-08-03T23:26:58.554Z,9.97
2018-08-03T23:29:50.111Z,12.53
2018-08-03T23:32:31.570Z,12.70
2018-08-03T23:35:12.870Z,12.10
2018-08-03T23:37:55.400Z,12.10
2018-08-03T23:49:58.377Z,14.03
2018-08-03T23:52:40.064Z,8.47
2018-08-03T23:55:21.666Z,14.50
2018-08-03T23:58:03.349Z,14.17
